Time;durP1;ratioP1;P1;durP2;ratioP2;P2;SDS_P1;SDS_P2;PMS_P1;PMS_P2;Temp;Humidity;BMP_temperature;BMP_pressure;BME280_temperature;BME280_humidity;BME280_pressure;Samples;Min_cycle;Max_cycle;Signal;HPM_P1;HPM_P2
2023/04/01 00:00:31;;;;;;;1.35;0.17;;;10.30;99.90;;;;;;5093659;28;20538;-71
2023/04/01 00:02:57;;;;;;;2.15;0.25;;;10.30;99.90;;;;;;5075581;28;20028;-70
2023/04/01 00:05:24;;;;;;;0.15;0.10;;;10.20;99.90;;;;;;5075675;28;20020;-71
2023/04/01 00:07:50;;;;;;;0.60;0.20;;;10.20;99.90;;;;;;5075478;28;20024;-70
2023/04/01 00:10:17;;;;;;;3.15;0.30;;;10.20;99.90;;;;;;5093707;28;20029;-71
2023/04/01 00:12:43;;;;;;;1.73;0.25;;;10.30;99.90;;;;;;5093824;28;20028;-71
2023/04/01 00:15:10;;;;;;;1.73;0.30;;;10.30;99.90;;;;;;5076130;28;20020;-70
2023/04/01 00:17:37;;;;;;;0.75;0.30;;;10.30;99.90;;;;;;5093539;28;20107;-71
2023/04/01 00:20:07;;;;;;;1.27;0.20;;;10.30;99.90;;;;;;5093556;28;20032;-70
2023/04/01 00:22:33;;;;;;;4.18;0.20;;;10.30;99.90;;;;;;5075318;28;20360;-71
2023/04/01 00:24:59;;;;;;;1.40;0.20;;;10.30;99.90;;;;;;5075558;28;20055;-71
2023/04/01 00:27:25;;;;;;;4.65;0.63;;;10.30;99.90;;;;;;5075521;28;20032;-70
2023/04/01 00:29:51;;;;;;;0.47;0.10;;;10.30;99.90;;;;;;5075359;28;20483;-71
2023/04/01 00:32:17;;;;;;;0.95;0.28;;;10.40;99.90;;;;;;5075256;28;20036;-70
2023/04/01 00:34:44;;;;;;;1.13;0.20;;;10.40;99.90;;;;;;5075352;28;20024;-70
2023/04/01 00:37:09;;;;;;;2.33;0.52;;;10.40;99.90;;;;;;5093382;28;20414;-71
2023/04/01 00:39:36;;;;;;;2.17;0.35;;;10.50;99.90;;;;;;5075262;28;20032;-71
2023/04/01 00:42:02;;;;;;;1.70;0.45;;;10.50;99.90;;;;;;5075101;28;20074;-71
2023/04/01 00:44:32;;;;;;;3.33;0.30;;;10.50;99.90;;;;;;5075179;28;20093;-71
2023/04/01 00:46:59;;;;;;;0.50;0.30;;;10.50;99.90;;;;;;5093283;28;20111;-71
2023/04/01 00:49:35;;;;;;;1.63;0.55;;;10.50;99.90;;;;;;5093090;28;20384;-71
2023/04/01 00:52:04;;;;;;;1.20;0.10;;;10.50;99.90;;;;;;5095681;28;20111;-70
2023/04/01 00:54:32;;;;;;;3.03;0.38;;;10.50;99.90;;;;;;5096460;28;20052;-70
2023/04/01 00:57:05;;;;;;;1.55;0.20;;;10.40;99.90;;;;;;5078600;28;20032;-70
2023/04/01 00:59:39;;;;;;;1.45;0.43;;;10.40;99.90;;;;;;5096490;28;20024;-71
2023/04/01 01:02:08;;;;;;;2.60;0.30;;;10.40;99.90;;;;;;5097112;28;20024;-70
2023/04/01 01:04:35;;;;;;;3.25;0.10;;;10.40;99.90;;;;;;5078470;28;20024;-70
2023/04/01 01:07:22;;;;;;;2.55;0.30;;;10.40;99.90;;;;;;5096652;28;20517;-70
2023/04/01 01:10:17;;;;;;;4.13;0.52;;;10.30;99.90;;;;;;5078392;28;20483;-70
2023/04/01 01:13:01;;;;;;;1.90;0.30;;;10.40;99.90;;;;;;5096511;28;20028;-70
2023/04/01 01:15:46;;;;;;;1.85;0.28;;;10.40;99.90;;;;;;5096757;28;20073;-70
2023/04/01 01:18:26;;;;;;;1.08;0.30;;;10.40;99.90;;;;;;5096127;28;20031;-70
2023/04/01 01:21:21;;;;;;;2.38;0.52;;;10.50;99.90;;;;;;5096693;28;20040;-70
2023/04/01 01:24:19;;;;;;;0.88;0.10;;;10.50;99.90;;;;;;5076280;28;20032;-70
2023/04/01 01:27:04;;;;;;;2.17;0.22;;;10.40;99.90;;;;;;5096440;28;20028;-70
2023/04/01 01:29:45;;;;;;;1.90;0.30;;;10.40;99.90;;;;;;5095091;28;20131;-70
2023/04/01 01:32:34;;;;;;;1.83;0.40;;;10.40;99.90;;;;;;5077994;28;20467;-70
2023/04/01 01:35:28;;;;;;;2.53;0.20;;;10.40;99.90;;;;;;5078434;28;20463;-70
2023/04/01 01:38:01;;;;;;;0.40;0.20;;;10.40;99.90;;;;;;5077921;28;20028;-70
2023/04/01 01:40:28;;;;;;;1.92;1.40;;;10.30;99.90;;;;;;5095955;28;20032;-70
2023/04/01 01:42:59;;;;;;;2.17;0.60;;;10.40;99.90;;;;;;5095985;28;20481;-70
2023/04/01 01:45:26;;;;;;;1.77;0.50;;;10.20;99.90;;;;;;5077793;28;20024;-70
2023/04/01 01:47:54;;;;;;;3.95;0.68;;;10.20;99.90;;;;;;5095866;28;20024;-70
2023/04/01 01:50:22;;;;;;;3.72;1.20;;;10.10;99.90;;;;;;5095800;28;20023;-71
2023/04/01 01:52:47;;;;;;;1.60;0.30;;;10.00;99.90;;;;;;5077287;28;20052;-70
2023/04/01 01:55:32;;;;;;;5.50;0.52;;;10.00;99.90;;;;;;5077610;28;20468;-71
2023/04/01 01:58:05;;;;;;;2.53;0.55;;;9.90;99.90;;;;;;5095617;28;20024;-70
2023/04/01 02:00:33;;;;;;;4.13;0.60;;;9.90;99.90;;;;;;5094590;28;20035;-70
2023/04/01 02:02:59;;;;;;;2.42;0.22;;;9.90;99.90;;;;;;5095367;28;20024;-70
2023/04/01 02:05:28;;;;;;;3.33;0.50;;;9.90;99.90;;;;;;5095546;28;20470;-70
2023/04/01 02:08:09;;;;;;;4.75;0.47;;;9.90;99.90;;;;;;5095479;28;20068;-70
2023/04/01 02:10:39;;;;;;;2.15;0.30;;;9.90;99.90;;;;;;5095484;28;20029;-70
2023/04/01 02:13:16;;;;;;;4.85;0.40;;;10.00;99.90;;;;;;5095520;28;20483;-70
2023/04/01 02:15:47;;;;;;;8.82;1.60;;;10.00;99.90;;;;;;5095178;28;20024;-70
2023/04/01 02:18:15;;;;;;;4.88;0.32;;;10.00;99.90;;;;;;5095440;28;20027;-70
2023/04/01 02:20:41;;;;;;;2.22;0.40;;;9.90;99.90;;;;;;5076984;28;20098;-70
2023/04/01 02:23:08;;;;;;;1.77;0.38;;;9.90;99.90;;;;;;5093912;28;20024;-70
2023/04/01 02:25:37;;;;;;;1.13;0.40;;;9.90;99.90;;;;;;5095502;28;20024;-70
2023/04/01 02:28:05;;;;;;;0.77;0.38;;;9.90;99.90;;;;;;5093792;28;20028;-70
2023/04/01 02:30:34;;;;;;;0.83;0.20;;;9.90;99.90;;;;;;5095052;28;20030;-71
2023/04/01 02:33:00;;;;;;;4.80;0.52;;;9.90;99.90;;;;;;5095190;28;20031;-70
2023/04/01 02:35:26;;;;;;;1.55;0.30;;;9.90;99.90;;;;;;5093627;28;20036;-70
2023/04/01 02:37:53;;;;;;;5.25;0.40;;;9.90;99.90;;;;;;5094576;28;20024;-70
2023/04/01 02:40:19;;;;;;;2.85;0.40;;;9.90;99.90;;;;;;5076853;28;20051;-70
2023/04/01 02:42:45;;;;;;;4.05;0.47;;;9.80;99.90;;;;;;5076196;28;20130;-70
2023/04/01 02:45:12;;;;;;;0.45;0.28;;;9.90;99.90;;;;;;5094753;28;20031;-70
2023/04/01 02:47:37;;;;;;;2.33;0.57;;;9.90;99.90;;;;;;5094413;28;20036;-70
2023/04/01 02:50:03;;;;;;;4.53;0.22;;;9.90;99.90;;;;;;5076448;28;20028;-70
2023/04/01 02:52:30;;;;;;;2.60;0.40;;;9.80;99.90;;;;;;5076373;28;20032;-70
2023/04/01 02:54:56;;;;;;;1.58;0.20;;;9.90;99.90;;;;;;5094920;28;20475;-70
2023/04/01 02:57:23;;;;;;;3.70;0.65;;;9.80;99.90;;;;;;5094673;28;20028;-70
2023/04/01 02:59:49;;;;;;;0.68;0.10;;;9.80;99.90;;;;;;5076286;28;20468;-70
2023/04/01 03:02:15;;;;;;;2.78;0.20;;;9.70;99.90;;;;;;5075861;28;20035;-70
2023/04/01 03:04:41;;;;;;;1.33;0.30;;;9.60;99.90;;;;;;5094649;28;20094;-70
2023/04/01 03:07:06;;;;;;;2.55;0.88;;;9.60;99.90;;;;;;5094423;28;20028;-70
2023/04/01 03:09:32;;;;;;;2.00;0.65;;;9.60;99.90;;;;;;5076192;28;20115;-70
2023/04/01 03:11:58;;;;;;;5.72;0.47;;;9.60;99.90;;;;;;5093839;28;20024;-70
2023/04/01 03:14:23;;;;;;;1.05;0.30;;;9.50;99.90;;;;;;5076289;28;20031;-70
2023/04/01 03:16:49;;;;;;;1.30;0.38;;;9.50;99.90;;;;;;5094561;28;20020;-70
2023/04/01 03:19:15;;;;;;;5.15;0.30;;;9.50;99.90;;;;;;5093972;28;20387;-70
2023/04/01 03:21:40;;;;;;;3.80;0.30;;;9.50;99.90;;;;;;5094198;28;20119;-70
2023/04/01 03:24:07;;;;;;;4.03;0.55;;;9.50;99.90;;;;;;5076605;28;20440;-70
2023/04/01 03:26:33;;;;;;;3.75;0.50;;;9.50;99.90;;;;;;5094108;28;20027;-70
2023/04/01 03:28:59;;;;;;;4.05;0.30;;;9.40;99.90;;;;;;5093785;28;20032;-70
2023/04/01 03:31:25;;;;;;;4.30;1.17;;;9.40;99.90;;;;;;5076166;28;20402;-70
2023/04/01 03:33:51;;;;;;;1.08;0.22;;;9.40;99.90;;;;;;5075967;28;20084;-70
2023/04/01 03:36:17;;;;;;;2.80;0.35;;;9.40;99.90;;;;;;5075920;28;20463;-70
2023/04/01 03:38:44;;;;;;;2.97;0.20;;;9.40;99.90;;;;;;5075939;28;20028;-70
2023/04/01 03:41:18;;;;;;;3.38;0.40;;;9.40;99.90;;;;;;5093884;28;20039;-70
2023/04/01 03:43:44;;;;;;;1.70;0.20;;;9.40;99.90;;;;;;5094385;28;20104;-70
2023/04/01 03:46:10;;;;;;;2.55;0.45;;;9.40;99.90;;;;;;5093928;28;20443;-70
2023/04/01 03:48:36;;;;;;;4.20;0.30;;;9.40;99.90;;;;;;5075475;28;20047;-70
2023/04/01 03:51:05;;;;;;;2.75;0.30;;;9.40;99.90;;;;;;5093860;28;20032;-70
2023/04/01 03:53:31;;;;;;;2.50;0.40;;;9.40;99.90;;;;;;5075630;28;20070;-70
2023/04/01 03:55:57;;;;;;;2.28;0.50;;;9.40;99.90;;;;;;5075703;28;20531;-70
2023/04/01 03:58:22;;;;;;;0.95;0.35;;;9.50;99.90;;;;;;5093485;28;20099;-70
2023/04/01 04:00:48;;;;;;;2.10;0.35;;;9.50;99.90;;;;;;5093677;28;20055;-69
2023/04/01 04:03:14;;;;;;;2.78;0.32;;;9.60;99.90;;;;;;5075841;28;20020;-69
2023/04/01 04:05:47;;;;;;;1.58;0.30;;;9.60;99.90;;;;;;5093745;28;20026;-70
2023/04/01 04:08:13;;;;;;;1.45;0.20;;;9.60;99.90;;;;;;5093924;28;20077;-70
2023/04/01 04:10:39;;;;;;;2.53;0.73;;;9.60;99.90;;;;;;5075526;28;20024;-70
2023/04/01 04:13:05;;;;;;;2.85;0.30;;;9.60;99.90;;;;;;5075235;28;20024;-70
2023/04/01 04:15:31;;;;;;;2.22;0.28;;;9.50;99.90;;;;;;5075497;28;20122;-70
2023/04/01 04:17:56;;;;;;;5.57;0.30;;;9.50;99.90;;;;;;5093317;28;20031;-70
2023/04/01 04:20:22;;;;;;;2.70;0.50;;;9.60;99.90;;;;;;5075505;28;20063;-70
2023/04/01 04:22:48;;;;;;;1.52;0.10;;;9.60;99.90;;;;;;5075427;28;20048;-70
2023/04/01 04:25:13;;;;;;;2.67;0.30;;;9.60;99.90;;;;;;5096008;28;20463;-70
2023/04/01 04:27:39;;;;;;;2.30;0.32;;;9.60;99.90;;;;;;5097748;28;20103;-70
2023/04/01 04:30:06;;;;;;;2.03;0.30;;;9.60;99.90;;;;;;5078831;28;20028;-70
2023/04/01 04:32:31;;;;;;;3.55;0.52;;;9.50;99.90;;;;;;5097058;28;20039;-70
2023/04/01 04:34:57;;;;;;;2.13;0.43;;;9.60;99.90;;;;;;5079088;28;20024;-70
2023/04/01 04:37:22;;;;;;;0.82;0.35;;;9.60;99.90;;;;;;5097247;28;20025;-70
2023/04/01 04:39:48;;;;;;;1.80;0.10;;;9.60;99.90;;;;;;5097234;28;20055;-70
2023/04/01 04:42:14;;;;;;;4.30;0.50;;;9.60;99.90;;;;;;5096795;28;20035;-70
2023/04/01 04:44:39;;;;;;;1.15;0.20;;;9.60;99.90;;;;;;5097101;28;20048;-69
2023/04/01 04:47:05;;;;;;;0.75;0.10;;;9.60;99.90;;;;;;5079042;28;20020;-70
2023/04/01 04:49:31;;;;;;;0.90;0.20;;;9.60;99.90;;;;;;5079382;28;20441;-70
2023/04/01 04:51:57;;;;;;;1.98;0.20;;;9.50;99.90;;;;;;5097284;28;20067;-70
2023/04/01 04:54:22;;;;;;;3.28;0.30;;;9.50;99.90;;;;;;5096794;28;20445;-70
2023/04/01 04:56:51;;;;;;;1.98;0.17;;;9.50;99.90;;;;;;5096853;28;20059;-70
2023/04/01 04:59:16;;;;;;;1.00;0.13;;;9.50;99.90;;;;;;5097079;28;20478;-70
2023/04/01 05:01:42;;;;;;;1.33;0.10;;;9.50;99.90;;;;;;5078569;28;20036;-70
2023/04/01 05:04:08;;;;;;;1.80;0.20;;;9.50;99.90;;;;;;5078600;28;20035;-70
2023/04/01 05:06:33;;;;;;;3.05;0.35;;;9.40;99.90;;;;;;5078563;28;20482;-70
2023/04/01 05:08:59;;;;;;;3.33;0.22;;;9.40;99.90;;;;;;5078498;28;20032;-70
2023/04/01 05:11:25;;;;;;;0.93;0.30;;;9.50;99.90;;;;;;5096273;28;20028;-70
2023/04/01 05:13:51;;;;;;;4.60;0.60;;;9.50;99.90;;;;;;5096550;28;20043;-70
2023/04/01 05:16:20;;;;;;;1.02;0.20;;;9.50;99.90;;;;;;5078418;28;20499;-69
2023/04/01 05:18:46;;;;;;;1.75;0.22;;;9.50;99.90;;;;;;5095372;28;20024;-69
2023/04/01 05:21:14;;;;;;;0.30;0.10;;;9.50;99.90;;;;;;5096591;28;20032;-70
2023/04/01 05:23:40;;;;;;;6.00;1.92;;;9.50;99.90;;;;;;5078227;28;20467;-72
2023/04/01 05:26:09;;;;;;;3.03;0.50;;;9.60;99.90;;;;;;5095094;28;20031;-70
2023/04/01 05:28:35;;;;;;;1.98;0.50;;;9.60;99.90;;;;;;5096587;28;20046;-70
2023/04/01 05:31:03;;;;;;;2.20;0.30;;;9.60;99.90;;;;;;5096231;28;20028;-70
2023/04/01 05:33:29;;;;;;;1.92;0.20;;;9.70;99.90;;;;;;5096821;28;20020;-70
2023/04/01 05:35:56;;;;;;;1.50;0.15;;;9.80;99.90;;;;;;5078460;28;20020;-70
2023/04/01 05:38:22;;;;;;;2.65;0.30;;;9.90;99.90;;;;;;5077965;28;20028;-70
2023/04/01 05:40:48;;;;;;;1.05;0.15;;;10.00;99.90;;;;;;5077880;28;20541;-70
2023/04/01 05:43:13;;;;;;;2.47;0.30;;;10.10;99.90;;;;;;5096010;28;20130;-70
2023/04/01 05:45:39;;;;;;;1.05;0.30;;;10.20;99.90;;;;;;5077506;28;20028;-70
2023/04/01 05:48:05;;;;;;;2.53;0.20;;;10.30;99.90;;;;;;5095870;28;20089;-70
2023/04/01 05:50:31;;;;;;;2.90;0.65;;;10.50;99.90;;;;;;5095846;28;20028;-70
2023/04/01 05:52:57;;;;;;;2.20;0.20;;;10.60;99.90;;;;;;5095345;28;20055;-70
2023/04/01 05:55:22;;;;;;;3.40;0.20;;;10.70;99.90;;;;;;5096077;28;20114;-70
2023/04/01 05:57:49;;;;;;;2.92;0.20;;;10.80;99.90;;;;;;5095722;28;20024;-70
2023/04/01 06:00:16;;;;;;;1.83;0.20;;;10.90;99.90;;;;;;5077729;28;20376;-70
2023/04/01 06:02:42;;;;;;;1.67;0.32;;;10.90;99.90;;;;;;5077305;28;20559;-70
2023/04/01 06:05:19;;;;;;;4.05;0.38;;;11.00;99.90;;;;;;5095715;28;20028;-70
2023/04/01 06:07:45;;;;;;;0.95;0.10;;;10.90;99.90;;;;;;5095378;28;20496;-60
2023/04/01 06:10:15;;;;;;;1.00;0.20;;;11.00;99.90;;;;;;5077214;28;20035;-60
2023/04/01 06:13:19;;;;;;;2.58;0.22;;;11.30;99.90;;;;;;5095357;28;20027;-60
2023/04/01 06:15:56;;;;;;;0.70;0.10;;;11.40;99.90;;;;;;5094641;28;20479;-60
2023/04/01 06:18:45;;;;;;;2.22;0.47;;;11.50;99.90;;;;;;5095037;28;20051;-70
2023/04/01 06:21:29;;;;;;;1.58;0.10;;;11.40;99.90;;;;;;5093781;28;20032;-70
2023/04/01 06:24:34;;;;;;;1.83;0.30;;;11.20;99.90;;;;;;5093934;28;20038;-70
2023/04/01 06:27:18;;;;;;;1.48;0.10;;;11.20;99.90;;;;;;5095406;28;20024;-69
2023/04/01 06:29:52;;;;;;;1.10;0.17;;;11.10;99.90;;;;;;5095011;28;20099;-70
2023/04/01 06:32:46;;;;;;;1.83;0.50;;;11.00;99.90;;;;;;5094941;28;20036;-69
2023/04/01 06:35:38;;;;;;;1.88;0.28;;;11.10;99.90;;;;;;5076949;28;20070;-69
2023/04/01 06:38:13;;;;;;;0.75;0.28;;;11.20;99.90;;;;;;5094659;28;20028;-69
2023/04/01 06:41:02;;;;;;;2.75;0.28;;;11.50;99.90;;;;;;5077210;28;20073;-70
2023/04/01 06:43:36;;;;;;;;;;;11.50;99.90;;;;;;5057215;28;20047;-72
2023/04/01 06:46:12;;;;;;;0.47;0.10;;;11.50;99.90;;;;;;5076577;28;19908;-69
2023/04/01 06:49:12;;;;;;;1.35;0.17;;;11.30;99.90;;;;;;5094036;28;20106;-68
2023/04/01 06:51:47;;;;;;;1.00;0.25;;;11.40;99.90;;;;;;5076800;28;20039;-69
2023/04/01 06:54:21;;;;;;;3.35;0.20;;;11.50;99.90;;;;;;5093231;28;20055;-68
2023/04/01 06:56:52;;;;;;;1.80;0.52;;;11.90;99.90;;;;;;5095073;28;20074;-69
2023/04/01 06:59:18;;;;;;;2.33;0.30;;;12.20;99.90;;;;;;5094779;28;20031;-69
2023/04/01 07:01:58;;;;;;;2.13;0.22;;;12.20;99.90;;;;;;5094746;28;20036;-69
2023/04/01 07:04:31;;;;;;;2.05;0.30;;;12.20;99.90;;;;;;5078228;28;20027;-71
2023/04/01 07:07:05;;;;;;;1.33;0.30;;;12.10;99.90;;;;;;5099873;28;20028;-71
2023/04/01 07:09:41;;;;;;;0.93;0.22;;;12.00;99.90;;;;;;5099422;28;20042;-71
2023/04/01 07:12:19;;;;;;;0.75;0.30;;;12.20;99.90;;;;;;5102881;28;20085;-74
2023/04/01 07:14:49;;;;;;;3.30;0.40;;;12.20;99.90;;;;;;5081984;28;20035;-75
2023/04/01 07:17:32;;;;;;;2.22;0.30;;;12.00;99.90;;;;;;5099199;28;20523;-78
2023/04/01 07:20:12;;;;;;;2.20;0.20;;;11.90;99.90;;;;;;5081446;28;20028;-77
2023/04/01 07:22:44;;;;;;;1.13;0.20;;;11.90;99.90;;;;;;5101948;28;20036;-82
2023/04/01 07:25:19;;;;;;;2.25;0.40;;;11.90;99.90;;;;;;5099107;28;20460;-72
2023/04/01 07:27:46;;;;;;;2.08;0.32;;;12.10;99.90;;;;;;5101104;28;20084;-70
2023/04/01 07:30:17;;;;;;;1.35;0.30;;;12.40;99.90;;;;;;5098049;28;20032;-74
2023/04/01 07:33:00;;;;;;;1.17;0.50;;;12.80;99.90;;;;;;5095936;28;20028;-75
2023/04/01 07:35:41;;;;;;;2.72;0.40;;;13.20;99.90;;;;;;5097213;28;20024;-75
2023/04/01 07:38:12;;;;;;;1.83;0.40;;;13.30;99.90;;;;;;5098352;28;20425;-76
2023/04/01 07:41:09;;;;;;;1.65;0.50;;;13.10;99.90;;;;;;5097184;28;20107;-78
2023/04/01 07:43:52;;;;;;;1.52;0.50;;;13.10;99.90;;;;;;5098018;28;20028;-74
2023/04/01 07:46:44;;;;;;;0.65;0.38;;;13.00;99.90;;;;;;5094632;28;20031;-75
2023/04/01 07:49:44;;;;;;;1.10;0.13;;;13.00;99.90;;;;;;5091045;28;20090;-69
2023/04/01 07:52:19;;;;;;;1.92;0.30;;;13.30;99.90;;;;;;5067017;28;20042;-68
2023/04/01 07:54:44;;;;;;;1.00;0.40;;;13.40;99.90;;;;;;5092370;28;20082;-69
2023/04/01 07:57:42;;;;;;;4.13;0.45;;;13.40;99.90;;;;;;5094169;28;20025;-63
2023/04/01 08:00:14;;;;;;;1.63;0.40;;;13.40;99.90;;;;;;5065572;28;20491;-76
2023/04/01 08:03:01;;;;;;;3.08;0.25;;;13.40;99.60;;;;;;5098806;28;20028;-72
2023/04/01 08:05:30;;;;;;;0.55;0.20;;;13.50;99.50;;;;;;5097969;28;20099;-70
2023/04/01 08:08:10;;;;;;;;;;;13.70;99.00;;;;;;5080051;28;20376;-71
2023/04/01 08:11:01;;;;;;;0.93;0.20;;;13.80;98.80;;;;;;5079767;28;20409;-71
2023/04/01 08:13:42;;;;;;;1.60;0.38;;;14.20;98.00;;;;;;5097870;28;20099;-69
2023/04/01 08:16:35;;;;;;;2.65;0.63;;;14.50;96.50;;;;;;5097724;28;20031;-68
2023/04/01 08:19:00;;;;;;;0.40;0.20;;;14.30;96.30;;;;;;5097465;28;20028;-71
2023/04/01 08:21:35;;;;;;;2.47;0.43;;;14.00;96.70;;;;;;5097549;28;20089;-71
2023/04/01 08:24:13;;;;;;;1.48;0.50;;;14.00;96.60;;;;;;5097516;28;20054;-60
2023/04/01 08:26:45;;;;;;;0.88;0.30;;;14.30;96.70;;;;;;5097436;28;20020;-62
2023/04/01 08:29:13;;;;;;;3.05;0.35;;;14.70;95.50;;;;;;5097616;28;20050;-66
2023/04/01 08:31:53;;;;;;;0.50;0.10;;;15.10;94.50;;;;;;5096988;28;20024;-70
2023/04/01 08:34:28;;;;;;;0.75;0.20;;;15.60;92.30;;;;;;5099051;28;20503;-76
2023/04/01 08:37:04;;;;;;;1.02;0.40;;;15.40;91.40;;;;;;5079454;28;20375;-71
2023/04/01 08:39:38;;;;;;;0.38;0.10;;;15.60;91.40;;;;;;5079139;28;20086;-76
2023/04/01 08:42:28;;;;;;;1.58;0.20;;;15.20;91.60;;;;;;5097201;28;20040;-62
2023/04/01 08:45:07;;;;;;;0.82;0.10;;;15.40;91.20;;;;;;5097116;28;20371;-64
2023/04/01 08:47:42;;;;;;;;;;;15.40;90.20;;;;;;5097403;28;20035;-62
2023/04/01 08:50:22;;;;;;;1.05;0.20;;;15.20;90.70;;;;;;5078789;28;19942;-72
2023/04/01 08:53:12;;;;;;;0.68;0.25;;;15.10;90.20;;;;;;5078156;28;20086;-71
2023/04/01 08:56:10;;;;;;;0.30;0.10;;;15.20;90.30;;;;;;5095892;28;20054;-71
2023/04/01 08:58:45;;;;;;;0.65;0.10;;;15.70;87.30;;;;;;5095663;28;20028;-67
2023/04/01 09:01:48;;;;;;;0.52;0.15;;;15.70;85.80;;;;;;5095525;28;20036;-64
2023/04/01 09:04:25;;;;;;;1.02;0.10;;;15.70;85.60;;;;;;5095725;28;20063;-61
2023/04/01 09:07:16;;;;;;;0.82;0.10;;;15.60;85.90;;;;;;5095523;28;20026;-61
2023/04/01 09:09:48;;;;;;;3.17;0.22;;;15.30;84.70;;;;;;5093818;28;20028;-62
2023/04/01 09:12:42;;;;;;;0.28;0.10;;;15.20;86.50;;;;;;5095379;28;20050;-73
2023/04/01 09:15:38;;;;;;;10.35;0.30;;;15.10;84.90;;;;;;5077413;28;20345;-71
2023/04/01 09:18:28;;;;;;;0.30;0.10;;;14.90;86.10;;;;;;5093841;28;20036;-64
2023/04/01 09:21:09;;;;;;;1.65;0.20;;;14.50;87.50;;;;;;5094036;28;20170;-63
2023/04/01 09:23:57;;;;;;;1.40;0.10;;;14.20;88.80;;;;;;5070540;28;20473;-61
2023/04/01 09:26:51;;;;;;;1.38;0.15;;;14.20;90.00;;;;;;5056634;28;20032;-61
2023/04/01 09:29:50;;;;;;;2.17;0.20;;;14.30;90.10;;;;;;5075271;28;20029;-61
2023/04/01 09:32:47;;;;;;;0.30;0.10;;;15.00;88.80;;;;;;5075083;28;20033;-61
2023/04/01 09:35:43;;;;;;;0.95;0.10;;;14.60;88.40;;;;;;5039874;28;20086;-63
2023/04/01 09:38:20;;;;;;;1.65;0.10;;;14.40;89.60;;;;;;5075449;28;20410;-64
2023/04/01 09:41:07;;;;;;;0.20;0.08;;;14.20;89.60;;;;;;5075210;28;20028;-64
2023/04/01 09:43:56;;;;;;;0.45;0.20;;;14.00;90.40;;;;;;5074849;28;20024;-64
2023/04/01 09:47:01;;;;;;;2.22;0.13;;;14.10;90.60;;;;;;5074690;28;20024;-64
2023/04/01 09:49:53;;;;;;;0.95;0.10;;;14.10;90.50;;;;;;5074865;28;20435;-64
2023/04/01 09:52:27;;;;;;;0.75;0.00;;;14.20;88.50;;;;;;4995877;28;1140065;-63
2023/04/01 09:55:22;;;;;;;1.80;0.20;;;14.30;89.20;;;;;;5075558;28;20028;-64
2023/04/01 09:58:09;;;;;;;0.55;0.10;;;15.10;86.60;;;;;;5036958;28;20119;-65
2023/04/01 10:00:56;;;;;;;0.20;0.10;;;16.40;80.90;;;;;;5057818;28;20376;-64
2023/04/01 10:03:59;;;;;;;0.40;0.08;;;16.40;77.60;;;;;;5075322;28;20119;-64
2023/04/01 10:06:25;;;;;;;0.30;0.00;;;16.10;77.40;;;;;;5075275;28;20418;-67
2023/04/01 10:09:29;;;;;;;0.90;0.10;;;15.50;76.50;;;;;;5075391;28;20029;-66
2023/04/01 10:12:32;;;;;;;0.13;0.05;;;14.80;78.50;;;;;;5076623;28;20112;-81
2023/04/01 10:15:07;;;;;;;0.17;0.08;;;14.30;80.70;;;;;;5074229;28;20036;-71
2023/04/01 10:18:04;;;;;;;0.65;0.10;;;14.10;83.20;;;;;;5057588;28;20035;-66
2023/04/01 10:20:45;;;;;;;0.30;0.10;;;14.00;85.20;;;;;;5054844;28;20478;-64
2023/04/01 10:23:13;;;;;;;0.17;0.10;;;14.00;85.20;;;;;;5056231;28;20055;-64
2023/04/01 10:26:12;;;;;;;0.20;0.10;;;14.10;85.50;;;;;;5057109;28;20384;-64
2023/04/01 10:28:52;;;;;;;0.10;0.10;;;14.10;85.10;;;;;;5073677;28;20033;-63
2023/04/01 10:31:30;;;;;;;0.68;0.10;;;14.10;85.30;;;;;;5074602;28;20108;-61
2023/04/01 10:34:23;;;;;;;0.50;0.08;;;14.30;84.70;;;;;;5074845;28;20094;-62
2023/04/01 10:36:54;;;;;;;0.70;0.20;;;14.30;83.70;;;;;;5057316;28;20337;-65
2023/04/01 10:39:37;;;;;;;0.35;0.05;;;14.50;84.10;;;;;;5074742;28;20035;-73
2023/04/01 10:42:22;;;;;;;0.43;0.08;;;14.70;83.00;;;;;;5056709;28;20155;-74
2023/04/01 10:45:07;;;;;;;0.30;0.10;;;14.90;81.70;;;;;;5073341;28;20025;-73
2023/04/01 10:48:11;;;;;;;0.40;0.10;;;14.90;80.10;;;;;;5057250;28;20027;-73
2023/04/01 10:50:57;;;;;;;0.20;0.05;;;14.70;79.60;;;;;;5044761;28;20037;-74
2023/04/01 10:53:29;;;;;;;0.10;0.00;;;14.60;79.30;;;;;;5074297;28;20049;-73
2023/04/01 10:56:06;;;;;;;0.82;0.10;;;15.10;78.70;;;;;;5056607;28;20024;-73
2023/04/01 10:58:44;;;;;;;1.30;0.10;;;15.20;76.80;;;;;;5074414;28;20460;-72
2023/04/01 11:01:15;;;;;;;0.10;0.05;;;14.70;77.90;;;;;;5074292;28;20039;-73
2023/04/01 11:03:50;;;;;;;0.38;0.00;;;14.60;78.30;;;;;;5073977;28;20029;-73
2023/04/01 11:06:43;;;;;;;0.43;0.10;;;15.00;78.20;;;;;;5056316;28;20060;-74
2023/04/01 11:09:15;;;;;;;0.28;0.10;;;15.20;77.10;;;;;;5074311;28;20028;-74
2023/04/01 11:12:18;;;;;;;0.20;0.00;;;14.90;78.20;;;;;;5056211;28;20047;-74
2023/04/01 11:15:19;;;;;;;2.20;0.10;;;15.10;77.50;;;;;;5074119;28;20029;-73
2023/04/01 11:17:48;;;;;;;0.65;0.03;;;15.30;76.70;;;;;;5026126;28;20376;-73
2023/04/01 11:20:36;;;;;;;0.15;0.10;;;15.80;75.10;;;;;;5074263;28;20032;-73
2023/04/01 11:23:12;;;;;;;0.20;0.10;;;16.00;74.00;;;;;;5055963;28;20044;-73
2023/04/01 11:26:17;;;;;;;0.15;0.00;;;16.20;70.60;;;;;;5073102;28;20025;-73
2023/04/01 11:28:51;;;;;;;0.00;0.00;;;15.90;70.50;;;;;;5056261;28;20040;-64
2023/04/01 11:31:34;;;;;;;0.75;0.00;;;15.70;72.60;;;;;;5073927;28;20047;-63
2023/04/01 11:34:37;;;;;;;0.22;0.00;;;15.60;73.00;;;;;;5073963;28;20375;-62
2023/04/01 11:37:16;;;;;;;0.40;0.30;;;15.40;72.70;;;;;;5074248;28;20032;-61
2023/04/01 11:40:05;;;;;;;0.20;0.00;;;15.30;73.60;;;;;;5073738;28;20017;-67
2023/04/01 11:42:51;;;;;;;0.17;0.00;;;15.00;72.70;;;;;;5056079;28;20365;-64
2023/04/01 11:45:54;;;;;;;0.20;0.00;;;15.00;73.80;;;;;;5074239;28;20017;-73
2023/04/01 11:48:28;;;;;;;0.17;0.00;;;15.30;73.10;;;;;;5075885;28;20036;-78
2023/04/01 11:51:06;;;;;;;0.43;0.00;;;15.60;71.60;;;;;;5056528;28;20358;-76
2023/04/01 11:53:42;;;;;;;0.40;0.00;;;16.20;70.30;;;;;;5041784;28;20045;-73
2023/04/01 11:56:38;;;;;;;0.00;0.00;;;17.30;68.30;;;;;;5033865;28;20380;-67
2023/04/01 11:59:25;;;;;;;0.20;0.00;;;18.60;63.00;;;;;;5048895;28;20037;-64
2023/04/01 12:02:28;;;;;;;0.20;0.00;;;18.70;58.80;;;;;;5033531;28;20095;-64
2023/04/01 12:05:12;;;;;;;0.13;0.00;;;18.00;61.30;;;;;;5033785;28;20034;-65
2023/04/01 12:07:38;;;;;;;0.10;0.00;;;17.30;61.80;;;;;;5048863;28;20025;-65
2023/04/01 12:10:33;;;;;;;0.10;0.00;;;17.00;62.50;;;;;;5033194;28;20037;-62
2023/04/01 12:13:05;;;;;;;0.57;0.00;;;16.60;64.60;;;;;;5033188;28;20437;-61
2023/04/01 12:16:10;;;;;;;0.80;0.10;;;16.50;64.50;;;;;;5033185;28;20026;-62
2023/04/01 12:18:52;;;;;;;0.40;0.10;;;17.00;63.80;;;;;;5033849;28;20167;-62
2023/04/01 12:21:38;;;;;;;0.57;0.10;;;17.50;62.70;;;;;;5033353;28;20034;-62
2023/04/01 12:24:35;;;;;;;1.92;0.10;;;18.20;60.60;;;;;;5033069;28;20473;-65
2023/04/01 12:27:29;;;;;;;0.20;0.00;;;18.50;59.70;;;;;;5033706;28;20064;-65
2023/04/01 12:30:25;;;;;;;0.60;0.00;;;18.30;59.20;;;;;;5033405;28;20025;-66
2023/04/01 12:33:26;;;;;;;0.35;0.10;;;17.40;60.50;;;;;;5033135;28;20071;-73
2023/04/01 12:36:04;;;;;;;0.40;0.00;;;16.30;62.00;;;;;;4972313;28;20554;-71
2023/04/01 12:38:48;;;;;;;0.10;0.00;;;15.60;63.60;;;;;;5021856;28;20037;-69
2023/04/01 12:41:54;;;;;;;1.65;0.00;;;15.00;68.10;;;;;;5033416;28;20040;-72
2023/04/01 12:44:40;;;;;;;0.35;0.10;;;15.50;68.80;;;;;;4955962;28;20050;-72
2023/04/01 12:47:18;;;;;;;0.10;0.00;;;16.20;64.30;;;;;;5033397;28;20041;-72
2023/04/01 12:49:52;;;;;;;0.43;0.03;;;16.10;65.10;;;;;;5052350;28;20540;-70
2023/04/01 12:52:30;;;;;;;1.13;0.00;;;16.00;64.60;;;;;;5036831;28;20128;-72
2023/04/01 12:55:12;;;;;;;1.08;0.10;;;16.10;64.70;;;;;;5058816;28;20464;-71
2023/04/01 12:57:59;;;;;;;1.27;0.10;;;16.00;64.30;;;;;;5058833;28;20034;-72
2023/04/01 13:00:46;;;;;;;0.98;0.05;;;16.50;63.20;;;;;;5076722;28;20048;-72
2023/04/01 13:03:15;;;;;;;0.65;0.00;;;17.00;61.70;;;;;;5076496;28;20028;-72
2023/04/01 13:06:18;;;;;;;0.68;0.25;;;17.50;61.30;;;;;;5076388;28;20032;-72
2023/04/01 13:08:52;;;;;;;0.47;0.00;;;18.80;58.20;;;;;;5076404;28;20029;-71
2023/04/01 13:11:32;;;;;;;0.10;0.05;;;19.30;55.50;;;;;;5058296;28;20361;-71
2023/04/01 13:14:01;;;;;;;0.00;0.00;;;19.80;54.80;;;;;;5058120;28;20058;-72
2023/04/01 13:16:38;;;;;;;0.70;0.25;;;19.30;52.50;;;;;;5058343;28;20464;-72
2023/04/01 13:19:17;;;;;;;2.83;0.10;;;18.70;54.50;;;;;;5076263;28;20032;-72
2023/04/01 13:22:35;;;;;;;0.75;0.17;;;17.70;55.90;;;;;;5076168;28;20040;-72
2023/04/01 13:25:09;;;;;;;3.97;0.20;;;17.10;57.60;;;;;;4974868;28;20031;-72
2023/04/01 13:27:48;;;;;;;0.50;0.20;;;16.40;58.60;;;;;;5060806;28;20114;-72
2023/04/01 13:30:16;;;;;;;0.15;0.00;;;16.30;60.00;;;;;;5075953;28;20029;-72
2023/04/01 13:33:10;;;;;;;0.38;0.00;;;16.60;60.20;;;;;;5075722;28;20020;-71
2023/04/01 13:35:41;;;;;;;0.45;0.10;;;17.60;58.40;;;;;;5057936;28;20028;-72
2023/04/01 13:38:48;;;;;;;0.30;0.00;;;19.40;55.00;;;;;;5075639;28;20035;-72